»·PEaware :: N22P L52-L88

N22P :: L52-L88

FLIGHT INFORMATION

Flight Status: Arrived
Operator: Privately registered:
United States
More flights under this callsign
Pilot: Jordon B. (36337)
Aircraft: CESSNA 172 SKYHAWK
(C172)
More flights by this aircraft type
Origin: L52 Oceano Co
United States
Destination: L88 New Cuyama
United States
More flights between these airports :: More routes between these airports
Route:
File this flight plan on PilotEdge
Remarks:
Altitude:
(Current/Filed)
6,000ft
Speed:
(Current/Filed)
120kts
Departed: 22-Sep-21 04:40 PM
Arrived: 22-Sep-21 05:18 PM
Distance/Time
Traveled:
47nm/0:37
Distance/Time
To Go:
Arrived

Flight Plot

Page will automatically refresh every two minutes.


Map Options




Map Legend


Flown Route
Filed Route
Departure Airport
Arrival Airport
Navaid (VOR, NDB)
Fix

Horizontal Profiles

Position Reports

Time Latitude Longitude Heading Altitude Ground
Speed
22-Sep-21 16:27 35.103386 -120.624486 227 18ft 0kts
22-Sep-21 16:28 35.103386 -120.624486 227 18ft 0kts
22-Sep-21 16:29 35.103386 -120.624486 227 18ft 0kts
22-Sep-21 16:30 35.103386 -120.624486 227 18ft 0kts
22-Sep-21 16:31 35.103386 -120.624486 227 18ft 0kts
22-Sep-21 16:32 35.103166 -120.624442 124 19ft 4kts
22-Sep-21 16:33 35.102069 -120.624256 133 22ft 4kts
22-Sep-21 16:34 35.099556 -120.619509 123 17ft 10kts
22-Sep-21 16:35 35.099471 -120.619492 258 17ft 0kts
22-Sep-21 16:36 35.099471 -120.619492 258 17ft 0kts
22-Sep-21 16:37 35.099471 -120.619492 258 17ft 0kts
22-Sep-21 16:38 35.099607 -120.619414 59 17ft 7kts
22-Sep-21 16:39 35.102620 -120.624401 303 21ft 64kts
22-Sep-21 16:40 35.114571 -120.639232 27 540ft 78kts
22-Sep-21 16:41 35.112297 -120.611156 109 1319ft 91kts
22-Sep-21 16:42 35.104456 -120.582422 111 2158ft 88kts
22-Sep-21 16:43 35.092480 -120.555648 119 2867ft 91kts
22-Sep-21 16:44 35.083413 -120.526554 105 3596ft 92kts
22-Sep-21 16:45 35.076245 -120.496535 109 4277ft 92kts
22-Sep-21 16:46 35.069771 -120.465897 102 4966ft 93kts
22-Sep-21 16:47 35.076328 -120.435259 75 5558ft 98kts
22-Sep-21 16:48 35.078990 -120.402819 89 6033ft 99kts
22-Sep-21 16:49 35.074310 -120.368193 98 6175ft 107kts
22-Sep-21 16:50 35.074983 -120.330498 88 6249ft 114kts
22-Sep-21 16:51 35.080886 -120.291979 82 6332ft 113kts
22-Sep-21 16:52 35.072735 -120.253732 113 6193ft 120kts
22-Sep-21 16:53 35.061005 -120.216658 116 6159ft 113kts
22-Sep-21 16:54 35.049972 -120.181482 112 6147ft 106kts
22-Sep-21 16:55 35.040436 -120.146165 109 6142ft 112kts
22-Sep-21 16:56 35.033199 -120.109251 101 6203ft 110kts
22-Sep-21 16:57 35.029938 -120.071455 91 6210ft 113kts
22-Sep-21 16:58 35.029947 -120.032287 101 6349ft 117kts
22-Sep-21 16:59 35.024955 -119.990816 97 6126ft 122kts
22-Sep-21 17:00 35.022269 -119.949901 113 6213ft 121kts
22-Sep-21 17:01 35.010304 -119.914710 111 5834ft 111kts
22-Sep-21 17:02 35.000290 -119.878431 111 5467ft 112kts
22-Sep-21 17:03 34.990587 -119.842159 106 5130ft 113kts
22-Sep-21 17:04 34.982218 -119.804758 103 4771ft 114kts
22-Sep-21 17:05 34.973387 -119.767619 102 4296ft 113kts
22-Sep-21 17:06 34.969571 -119.729643 93 3812ft 109kts
22-Sep-21 17:07 34.967153 -119.696033 111 3678ft 93kts
22-Sep-21 17:08 34.946749 -119.691937 218 3461ft 78kts
22-Sep-21 17:10 34.926547 -119.702012 207 3511ft 88kts
22-Sep-21 17:11 34.905039 -119.715812 136 3562ft 115kts
22-Sep-21 17:12 34.909087 -119.687456 185 2946ft 110kts
22-Sep-21 17:13 34.894171 -119.674645 32 3270ft 106kts
22-Sep-21 17:14 34.916430 -119.654300 10 3201ft 103kts
22-Sep-21 17:15 34.941617 -119.664842 292 3147ft 109kts
22-Sep-21 17:16 34.951912 -119.691330 300 2952ft 72kts
22-Sep-21 17:17 34.946953 -119.702787 110 2406ft 80kts
22-Sep-21 17:18 34.938914 -119.683010 118 2195ft 24kts
22-Sep-21 17:19 34.938210 -119.681245 311 2201ft 0kts
22-Sep-21 17:20 34.938210 -119.681245 311 2201ft 0kts
22-Sep-21 17:30 34.937685 -119.680106 8 2207ft 0kts
22-Sep-21 17:31 34.937685 -119.680106 8 2207ft 0kts
22-Sep-21 17:31 34.937685 -119.680106 8 2207ft 0kts

Navigation Log

Ident Type
Flight plan parsing failed, navigation log unavailable